Aviation Digital Data Service (ADDS)

Output produced by METARs form (1735 UTC 07 July 2015)
found at http://aviationweather.gov/adds/metars/
 
KLGA 071727Z 0718/0818 18014G20KT P6SM VCSH SCT025 BKN035 
     FM072000 18016KT P6SM BKN035 
     TEMPO 0721/0722 3SM -SHRA BR 
     FM080100 21008KT P6SM SCT040 BKN250 
     FM081400 26010KT P6SM SCT040 OVC100